Time;durP1;ratioP1;P1;durP2;ratioP2;P2;SDS_P1;SDS_P2;PMS_P1;PMS_P2;Temp;Humidity;BMP_temperature;BMP_pressure;BME280_temperature;BME280_humidity;BME280_pressure;Samples;Min_cycle;Max_cycle;Signal;HPM_P1;HPM_P2
2021/11/20 00:00:41;;;;;;;;;;;8.60;99.90;;;;;;5017970;28;19924;-74
2021/11/20 00:03:07;;;;;;;;;;;8.50;99.90;;;;;;5019463;28;19980;-74
2021/11/20 00:05:35;;;;;;;;;;;8.50;99.90;;;;;;5017503;28;19924;-74
2021/11/20 00:08:01;;;;;;;;;;;8.40;99.90;;;;;;5016007;28;19992;-74
2021/11/20 00:10:28;;;;;;;;;;;8.40;99.90;;;;;;5019392;28;19952;-74
2021/11/20 00:12:54;;;;;;;;;;;8.30;99.90;;;;;;5019311;28;19917;-74
2021/11/20 00:15:23;;;;;;;;;;;8.20;99.90;;;;;;5026428;28;19936;-74
2021/11/20 00:17:48;;;;;;;;;;;8.20;99.90;;;;;;5006841;28;19914;-75
2021/11/20 00:20:15;;;;;;;;;;;8.30;99.90;;;;;;5009282;28;19925;-74
2021/11/20 00:22:43;;;;;;;;;;;8.30;99.90;;;;;;5015047;28;19937;-74
2021/11/20 00:25:21;;;;;;;;;;;8.30;99.90;;;;;;5014086;28;19913;-74
2021/11/20 00:27:48;;;;;;;;;;;8.20;99.90;;;;;;5008610;28;19914;-74
2021/11/20 00:30:17;;;;;;;;;;;8.30;99.90;;;;;;5013269;28;19921;-74
2021/11/20 00:32:45;;;;;;;;;;;8.20;99.90;;;;;;5009545;28;20021;-73
2021/11/20 00:35:12;;;;;;;;;;;8.20;99.90;;;;;;5011062;28;19949;-73
2021/11/20 00:37:39;;;;;;;;;;;8.20;99.90;;;;;;5013055;28;19918;-73
2021/11/20 00:40:06;;;;;;;;;;;8.30;99.90;;;;;;5007797;28;19914;-74
2021/11/20 00:42:32;;;;;;;;;;;8.30;99.90;;;;;;5003119;28;19928;-74
2021/11/20 00:44:57;;;;;;;;;;;8.20;99.90;;;;;;5011630;28;19913;-75
2021/11/20 00:47:24;;;;;;;;;;;8.20;99.90;;;;;;5011384;28;19914;-74
2021/11/20 00:49:50;;;;;;;;;;;8.20;99.90;;;;;;5009828;28;20371;-74
2021/11/20 00:52:17;;;;;;;;;;;8.10;99.90;;;;;;5008274;28;19964;-74
2021/11/20 00:54:42;;;;;;;;;;;8.20;99.90;;;;;;5010917;28;20150;-74
2021/11/20 00:57:09;;;;;;;;;;;8.10;99.90;;;;;;5006211;28;19997;-74
2021/11/20 00:59:35;;;;;;;;;;;8.10;99.90;;;;;;5011925;28;20047;-74
2021/11/20 01:02:02;;;;;;;;;;;8.10;99.90;;;;;;5011182;28;20008;-72
2021/11/20 01:04:28;;;;;;;;;;;8.10;99.90;;;;;;5009773;28;19929;-73
2021/11/20 01:06:54;;;;;;;;;;;8.10;99.90;;;;;;5009396;28;19917;-73
2021/11/20 01:09:22;;;;;;;;;;;8.10;99.90;;;;;;5011555;28;19917;-73
2021/11/20 01:11:51;;;;;;;;;;;8.10;99.90;;;;;;5010410;28;19925;-74
2021/11/20 01:14:18;;;;;;;;;;;8.20;99.90;;;;;;5010998;28;20000;-74
2021/11/20 01:16:45;;;;;;;;;;;8.10;99.90;;;;;;5011549;28;19975;-74
2021/11/20 01:19:11;;;;;;;;;;;8.20;99.90;;;;;;5004204;28;20008;-74
2021/11/20 01:21:37;;;;;;;;;;;8.20;99.90;;;;;;5007519;28;20013;-74
2021/11/20 01:24:04;;;;;;;;;;;8.10;99.90;;;;;;5010205;28;19916;-75
2021/11/20 01:26:30;;;;;;;;;;;8.10;99.90;;;;;;5007120;28;19921;-74
2021/11/20 01:28:56;;;;;;;;;;;8.00;99.90;;;;;;5002938;28;19914;-74
2021/11/20 01:31:24;;;;;;;;;;;8.00;99.90;;;;;;5002300;28;19924;-74
2021/11/20 01:33:50;;;;;;;;;;;8.00;99.90;;;;;;5008232;28;19914;-74
2021/11/20 01:36:18;;;;;;;;;;;8.00;99.90;;;;;;5004987;28;19920;-74
2021/11/20 01:38:44;;;;;;;;;;;7.90;99.90;;;;;;5010192;28;20330;-74
2021/11/20 01:41:10;;;;;;;;;;;7.90;99.90;;;;;;5009219;28;19925;-74
2021/11/20 01:43:36;;;;;;;;;;;7.90;99.90;;;;;;5008728;28;19914;-74
2021/11/20 01:46:05;;;;;;;;;;;7.90;99.90;;;;;;5011271;28;19921;-74
2021/11/20 01:48:39;;;;;;;;;;;8.00;99.90;;;;;;5010586;28;20371;-74
2021/11/20 01:51:09;;;;;;;;;;;8.00;99.90;;;;;;5003931;28;19921;-74
2021/11/20 01:53:40;;;;;;;;;;;8.00;99.90;;;;;;5011746;28;19910;-74
2021/11/20 01:56:11;;;;;;;;;;;8.10;99.90;;;;;;5011820;28;19913;-74
2021/11/20 01:58:43;;;;;;;;;;;8.00;99.90;;;;;;5008938;28;19924;-74
2021/11/20 02:01:12;;;;;;;;;;;7.90;99.90;;;;;;5007204;28;19917;-74
2021/11/20 02:03:41;;;;;;;;;;;8.00;99.90;;;;;;5011007;28;20267;-74
2021/11/20 02:06:20;;;;;;;;;;;8.00;99.90;;;;;;5010400;28;19932;-74
2021/11/20 02:08:51;;;;;;;;;;;7.90;99.90;;;;;;5012567;28;20015;-74
2021/11/20 02:11:40;;;;;;;;;;;7.90;99.90;;;;;;5012397;28;20334;-74
2021/11/20 02:14:07;;;;;;;;;;;7.80;99.90;;;;;;5009774;28;19921;-74
2021/11/20 02:16:36;;;;;;;;;;;7.70;99.90;;;;;;5019066;28;19920;-73
2021/11/20 02:19:04;;;;;;;;;;;7.70;99.90;;;;;;5017114;28;20477;-74
2021/11/20 02:21:35;;;;;;;;;;;7.70;99.90;;;;;;5010606;28;20291;-74
2021/11/20 02:24:01;;;;;;;;;;;7.80;99.90;;;;;;5010953;28;19914;-74
2021/11/20 02:26:26;;;;;;;;;;;7.70;99.90;;;;;;5010095;28;19936;-75
2021/11/20 02:28:53;;;;;;;;;;;7.80;99.90;;;;;;5005504;28;19922;-75
2021/11/20 02:31:18;;;;;;;;;;;7.70;99.90;;;;;;5009956;28;19920;-75
2021/11/20 02:33:46;;;;;;;;;;;7.60;99.90;;;;;;5008455;28;19929;-74
2021/11/20 02:36:16;;;;;;;;;;;7.50;99.90;;;;;;5003095;28;20004;-74
2021/11/20 02:38:45;;;;;;;;;;;7.50;99.90;;;;;;5004807;28;20677;-74
2021/11/20 02:41:13;;;;;;;;;;;7.70;99.90;;;;;;5012491;28;20021;-74
2021/11/20 02:43:40;;;;;;;;;;;7.80;99.90;;;;;;5014735;28;19910;-74
2021/11/20 02:46:06;;;;;;;;;;;7.80;99.90;;;;;;5014782;28;20268;-74
2021/11/20 02:48:32;;;;;;;;;;;7.70;99.90;;;;;;5014151;28;19925;-74
2021/11/20 02:51:04;;;;;;;;;;;7.70;99.90;;;;;;5013884;28;19913;-74
2021/11/20 02:53:31;;;;;;;;;;;7.70;99.90;;;;;;5014494;28;19909;-74
2021/11/20 02:55:58;;;;;;;;;;;7.60;99.90;;;;;;5012581;28;19914;-74
2021/11/20 02:58:24;;;;;;;;;;;7.70;99.90;;;;;;5007342;28;19910;-74
2021/11/20 03:01:09;;;;;;;;;;;7.70;99.90;;;;;;5013755;28;20414;-74
2021/11/20 03:03:34;;;;;;;;;;;7.70;99.90;;;;;;5013880;28;20390;-74
2021/11/20 03:06:00;;;;;;;;;;;7.70;99.90;;;;;;5013222;28;19996;-74
2021/11/20 03:08:26;;;;;;;;;;;7.60;99.90;;;;;;5013097;28;19917;-74
2021/11/20 03:10:52;;;;;;;;;;;7.70;99.90;;;;;;5012056;28;19917;-73
2021/11/20 03:13:18;;;;;;;;;;;7.70;99.90;;;;;;5012678;28;19938;-73
2021/11/20 03:15:44;;;;;;;;;;;7.60;99.90;;;;;;5008259;28;19918;-73
2021/11/20 03:18:09;;;;;;;;;;;7.60;99.90;;;;;;5027759;28;19913;-74
2021/11/20 03:20:35;;;;;;;;;;;7.60;99.90;;;;;;5013265;28;19918;-74
2021/11/20 03:23:10;;;;;;;;;;;7.50;99.90;;;;;;5013860;28;20415;-73
2021/11/20 03:25:35;;;;;;;;;;;7.50;99.90;;;;;;5013230;28;19968;-74
2021/11/20 03:28:01;;;;;;;;;;;7.50;99.90;;;;;;5028446;28;19913;-75
2021/11/20 03:30:26;;;;;;;;;;;7.50;99.90;;;;;;5009928;28;20004;-75
2021/11/20 03:32:52;;;;;;;;;;;7.50;99.90;;;;;;5012049;28;19918;-75
2021/11/20 03:35:18;;;;;;;;;;;7.40;99.90;;;;;;5008642;28;20430;-74
2021/11/20 03:37:44;;;;;;;;;;;7.50;99.90;;;;;;5005929;28;19924;-74
2021/11/20 03:40:11;;;;;;;;;;;7.50;99.90;;;;;;5012408;28;20260;-75
2021/11/20 03:42:36;;;;;;;;;;;7.60;99.90;;;;;;5013301;28;19968;-75
2021/11/20 03:45:03;;;;;;;;;;;7.60;99.90;;;;;;5013393;28;20311;-75
2021/11/20 03:47:29;;;;;;;;;;;7.60;99.90;;;;;;5012924;28;20039;-75
2021/11/20 03:49:55;;;;;;;;;;;7.50;99.90;;;;;;5011620;28;19917;-75
2021/11/20 03:52:20;;;;;;;;;;;7.50;99.90;;;;;;5013715;28;19963;-74
2021/11/20 03:54:46;;;;;;;;;;;7.50;99.90;;;;;;5013875;28;19909;-74
2021/11/20 03:57:12;;;;;;;;;;;7.40;99.90;;;;;;5012313;28;19920;-74
2021/11/20 03:59:38;;;;;;;;;;;7.40;99.90;;;;;;5010794;28;19917;-74
2021/11/20 04:02:03;;;;;;;;;;;7.40;99.90;;;;;;5012551;28;19918;-74
2021/11/20 04:04:29;;;;;;;;;;;7.40;99.90;;;;;;5012989;28;19916;-74
2021/11/20 04:06:55;;;;;;;;;;;7.40;99.90;;;;;;5012588;28;20000;-76
2021/11/20 04:09:22;;;;;;;;;;;7.40;99.90;;;;;;5013853;28;20017;-76
2021/11/20 04:11:48;;;;;;;;;;;7.40;99.90;;;;;;5015019;28;19933;-77
2021/11/20 04:14:15;;;;;;;;;;;7.40;99.90;;;;;;5013214;28;19967;-77
2021/11/20 04:16:41;;;;;;;;;;;7.40;99.90;;;;;;5006573;28;19914;-76
2021/11/20 04:19:07;;;;;;;;;;;7.50;99.90;;;;;;5013115;28;19913;-77
2021/11/20 04:21:33;;;;;;;;;;;7.50;99.90;;;;;;5012486;28;19922;-76
2021/11/20 04:23:59;;;;;;;;;;;7.40;99.90;;;;;;5014520;28;19917;-76
2021/11/20 04:26:26;;;;;;;;;;;7.40;99.90;;;;;;5010126;28;19989;-76
2021/11/20 04:28:51;;;;;;;;;;;7.30;99.90;;;;;;5012560;28;19975;-76
2021/11/20 04:31:19;;;;;;;;;;;7.40;99.90;;;;;;5013288;28;20375;-76
2021/11/20 04:33:45;;;;;;;;;;;7.40;99.90;;;;;;5012552;28;19909;-76
2021/11/20 04:36:11;;;;;;;;;;;7.50;99.90;;;;;;5012816;28;19913;-76
2021/11/20 04:38:37;;;;;;;;;;;7.40;99.90;;;;;;5011039;28;19957;-76
2021/11/20 04:41:02;;;;;;;;;;;7.30;99.90;;;;;;5012680;28;19921;-77
2021/11/20 04:43:28;;;;;;;;;;;7.20;99.90;;;;;;5012859;28;19910;-75
2021/11/20 04:45:54;;;;;;;;;;;7.10;99.90;;;;;;5012740;28;19959;-76
2021/11/20 04:48:19;;;;;;;;;;;7.10;99.90;;;;;;5010254;28;20003;-75
2021/11/20 04:50:46;;;;;;;;;;;7.10;99.90;;;;;;5013006;28;20028;-76
2021/11/20 04:53:12;;;;;;;;;;;7.10;99.90;;;;;;5012444;28;19936;-74
2021/11/20 04:55:37;;;;;;;;;;;7.10;99.90;;;;;;5012215;28;19921;-77
2021/11/20 04:58:03;;;;;;;;;;;7.20;99.90;;;;;;5011402;28;19910;-76
2021/11/20 05:00:37;;;;;;;;;;;7.30;99.90;;;;;;5011127;28;19964;-77
2021/11/20 05:03:06;;;;;;;;;;;7.20;99.90;;;;;;5010799;28;19913;-76
2021/11/20 05:05:36;;;;;;;;;;;7.30;99.90;;;;;;5012707;28;19983;-76
2021/11/20 05:08:03;;;;;;;;;;;7.40;99.90;;;;;;5011776;28;19933;-76
2021/11/20 05:10:28;;;;;;;;;;;7.30;99.90;;;;;;5007842;28;19920;-75
2021/11/20 05:12:54;;;;;;;;;;;7.30;99.90;;;;;;5013024;28;20287;-75
2021/11/20 05:15:20;;;;;;;;;;;7.20;99.90;;;;;;5012669;28;20347;-76
2021/11/20 05:17:45;;;;;;;;;;;7.20;99.90;;;;;;5029435;28;20342;-76
2021/11/20 05:20:11;;;;;;;;;;;7.20;99.90;;;;;;5013213;28;20008;-75
2021/11/20 05:22:37;;;;;;;;;;;7.20;99.90;;;;;;5010263;28;19944;-76
2021/11/20 05:25:03;;;;;;;;;;;7.10;99.90;;;;;;5008606;28;20006;-75
2021/11/20 05:27:29;;;;;;;;;;;7.20;99.90;;;;;;5010948;28;20300;-76
2021/11/20 05:30:13;;;;;;;;;;;7.20;99.90;;;;;;5011017;28;19948;-77
2021/11/20 05:32:38;;;;;;;;;;;7.20;99.90;;;;;;5011830;28;19910;-77
2021/11/20 05:35:05;;;;;;;;;;;7.30;99.90;;;;;;5012279;28;19917;-76
2021/11/20 05:37:30;;;;;;;;;;;7.20;99.90;;;;;;5008762;28;19914;-75
2021/11/20 05:39:56;;;;;;;;;;;7.10;99.90;;;;;;5001749;28;20007;-77
2021/11/20 05:42:21;;;;;;;;;;;7.10;99.90;;;;;;5017938;28;19913;-75
2021/11/20 05:44:47;;;;;;;;;;;7.20;99.90;;;;;;5020171;28;19917;-76
2021/11/20 05:47:13;;;;;;;;;;;7.10;99.90;;;;;;5020685;28;19910;-76
2021/11/20 05:49:40;;;;;;;;;;;7.00;99.90;;;;;;5016336;28;20244;-78
2021/11/20 05:52:07;;;;;;;;;;;7.10;99.90;;;;;;5007993;28;19917;-76
2021/11/20 05:54:32;;;;;;;;;;;7.10;99.90;;;;;;5003620;28;19941;-77
2021/11/20 05:56:58;;;;;;;;;;;7.00;99.90;;;;;;5008154;28;20372;-76
2021/11/20 05:59:24;;;;;;;;;;;7.00;99.90;;;;;;5012315;28;20454;-77
2021/11/20 06:01:50;;;;;;;;;;;7.10;99.90;;;;;;5010917;28;19968;-76
2021/11/20 06:04:16;;;;;;;;;;;7.00;99.90;;;;;;5008021;28;19925;-75
2021/11/20 06:06:42;;;;;;;;;;;6.90;99.90;;;;;;5009599;28;19928;-76
2021/11/20 06:09:08;;;;;;;;;;;6.90;99.90;;;;;;5010485;28;20363;-76
2021/11/20 06:11:34;;;;;;;;;;;7.00;99.90;;;;;;5011806;28;19992;-75
2021/11/20 06:14:00;;;;;;;;;;;6.90;99.90;;;;;;5010804;28;19949;-77
2021/11/20 06:16:26;;;;;;;;;;;6.90;99.90;;;;;;5005499;28;19960;-75
2021/11/20 06:18:52;;;;;;;;;;;6.90;99.90;;;;;;4993945;28;19909;-75
2021/11/20 06:21:17;;;;;;;;;;;7.00;99.90;;;;;;4992021;28;20360;-76
2021/11/20 06:23:43;;;;;;;;;;;7.00;99.90;;;;;;5006287;28;19966;-75
2021/11/20 06:26:09;;;;;;;;;;;7.10;99.90;;;;;;5008402;28;19913;-76
2021/11/20 06:28:36;;;;;;;;;;;7.10;99.90;;;;;;5011752;28;19967;-75
2021/11/20 06:31:02;;;;;;;;;;;7.10;99.90;;;;;;5013570;28;19939;-76
2021/11/20 06:33:28;;;;;;;;;;;7.10;99.90;;;;;;5011388;28;19923;-76
2021/11/20 06:35:53;;;;;;;;;;;7.10;99.90;;;;;;5005524;28;19917;-77
2021/11/20 06:38:20;;;;;;;;;;;7.10;99.90;;;;;;5012712;28;20071;-77
2021/11/20 06:40:47;;;;;;;;;;;7.10;99.90;;;;;;5012046;28;19917;-77
2021/11/20 06:43:14;;;;;;;;;;;7.10;99.90;;;;;;5021059;28;20241;-77
2021/11/20 06:45:42;;;;;;;;;;;7.20;99.90;;;;;;5014496;28;19913;-80
2021/11/20 06:48:08;;;;;;;;;;;7.20;99.90;;;;;;5016600;28;19913;-77
2021/11/20 06:50:34;;;;;;;;;;;7.20;99.90;;;;;;5018194;28;19924;-77
2021/11/20 06:53:04;;;;;;;;;;;7.30;99.90;;;;;;5016337;28;19918;-77
2021/11/20 06:55:31;;;;;;;;;;;7.40;99.90;;;;;;5010710;28;19918;-75
2021/11/20 06:58:08;;;;;;;;;;;7.40;99.90;;;;;;5004782;28;20008;-79
2021/11/20 07:00:36;;;;;;;;;;;7.40;99.90;;;;;;5019139;28;19914;-77
2021/11/20 07:03:04;;;;;;;;;;;7.50;99.90;;;;;;5010577;28;19913;-74
2021/11/20 07:05:31;;;;;;;;;;;7.40;99.90;;;;;;5007617;28;19924;-76
2021/11/20 07:07:58;;;;;;;;;;;7.50;99.90;;;;;;5013256;28;19925;-76
2021/11/20 07:10:24;;;;;;;;;;;7.50;99.90;;;;;;5014694;28;19956;-76
2021/11/20 07:12:53;;;;;;;;;;;7.60;99.90;;;;;;5015664;28;19913;-78
2021/11/20 07:15:20;;;;;;;;;;;7.60;99.90;;;;;;5005007;28;20004;-78
2021/11/20 07:17:45;;;;;;;;;;;7.80;99.90;;;;;;5010992;28;19959;-76
2021/11/20 07:20:11;;;;;;;;;;;8.00;99.90;;;;;;5012446;28;19910;-77
2021/11/20 07:22:37;;;;;;;;;;;8.20;99.90;;;;;;5011362;28;20293;-78
2021/11/20 07:25:03;;;;;;;;;;;8.30;99.90;;;;;;5011871;28;19933;-76
2021/11/20 07:27:29;;;;;;;;;;;8.40;99.90;;;;;;5014007;28;19916;-76
2021/11/20 07:29:54;;;;;;;;;;;8.50;99.90;;;;;;5017933;28;20271;-76
2021/11/20 07:32:20;;;;;;;;;;;8.50;99.90;;;;;;5016964;28;20383;-75
2021/11/20 07:34:46;;;;;;;;;;;8.60;99.90;;;;;;5019342;28;19909;-75
2021/11/20 07:37:11;;;;;;;;;;;8.60;99.90;;;;;;5018618;28;19965;-76
2021/11/20 07:39:37;;;;;;;;;;;8.60;99.90;;;;;;5021159;28;19910;-75
2021/11/20 07:42:04;;;;;;;;;;;8.60;99.90;;;;;;5019936;28;19941;-76
2021/11/20 07:44:29;;;;;;;;;;;8.60;99.90;;;;;;5020835;28;19917;-77
2021/11/20 07:46:55;;;;;;;;;;;8.80;99.90;;;;;;5020456;28;20304;-76
2021/11/20 07:49:20;;;;;;;;;;;8.80;99.90;;;;;;5018514;28;19909;-77
2021/11/20 07:51:46;;;;;;;;;;;8.90;99.90;;;;;;5017728;28;19909;-75
2021/11/20 07:54:12;;;;;;;;;;;8.90;99.90;;;;;;5020555;28;19967;-76
2021/11/20 07:56:41;;;;;;;;;;;9.10;99.90;;;;;;5029086;28;19910;-75
2021/11/20 07:59:11;;;;;;;;;;;9.30;99.90;;;;;;5023310;28;19910;-77
2021/11/20 08:01:36;;;;;;;;;;;9.40;99.90;;;;;;5025249;28;20303;-77
2021/11/20 08:04:02;;;;;;;;;;;9.50;99.90;;;;;;5023101;28;19913;-76
2021/11/20 08:06:28;;;;;;;;;;;9.70;99.90;;;;;;5015712;28;19922;-71
2021/11/20 08:08:54;;;;;;;;;;;9.60;99.90;;;;;;5013989;28;19914;-70
2021/11/20 08:11:20;;;;;;;;;;;9.60;99.90;;;;;;5016933;28;19949;-70
2021/11/20 08:13:46;;;;;;;;;;;9.50;99.90;;;;;;5016994;28;19949;-72
2021/11/20 08:16:12;;;;;;;;;;;9.40;99.90;;;;;;5020207;28;19913;-72
2021/11/20 08:18:41;;;;;;;;;;;9.30;99.90;;;;;;5017836;28;19917;-70
2021/11/20 08:21:06;;;;;;;;;;;9.40;99.90;;;;;;5019799;28;20426;-72
2021/11/20 08:23:32;;;;;;;;;;;9.40;99.90;;;;;;5016245;28;19917;-72
2021/11/20 08:25:58;;;;;;;;;;;9.50;99.90;;;;;;5019109;28;19914;-72
2021/11/20 08:28:26;;;;;;;;;;;9.50;99.90;;;;;;5010724;28;19920;-68
2021/11/20 08:30:51;;;;;;;;;;;9.70;99.90;;;;;;5012923;28;19914;-67
2021/11/20 08:33:18;;;;;;;;;;;9.80;99.90;;;;;;5027119;28;19921;-66
2021/11/20 08:35:43;;;;;;;;;;;10.00;99.90;;;;;;5010800;28;19914;-69
2021/11/20 08:38:10;;;;;;;;;;;10.10;99.90;;;;;;5003350;28;19914;-67
2021/11/20 08:40:36;;;;;;;;;;;10.20;99.90;;;;;;5012936;28;19983;-66
2021/11/20 08:43:02;;;;;;;;;;;10.30;99.90;;;;;;5008979;28;20379;-67
2021/11/20 08:45:31;;;;;;;;;;;10.50;99.90;;;;;;5012500;28;19913;-67
2021/11/20 08:47:57;;;;;;;;;;;10.70;99.90;;;;;;5010911;28;19918;-67
2021/11/20 08:50:25;;;;;;;;;;;11.00;99.90;;;;;;5009825;28;20008;-68
2021/11/20 08:52:51;;;;;;;;;;;11.30;99.90;;;;;;5013138;28;19909;-68
2021/11/20 08:55:17;;;;;;;;;;;11.30;99.90;;;;;;4997124;28;19922;-67
2021/11/20 08:57:43;;;;;;;;;;;11.40;99.90;;;;;;5001580;28;19920;-68
2021/11/20 09:00:11;;;;;;;;;;;11.40;99.90;;;;;;5002156;28;20000;-68
2021/11/20 09:02:42;;;;;;;;;;;11.50;99.90;;;;;;5013753;28;19929;-67
2021/11/20 09:05:20;;;;;;;;;;;11.70;99.90;;;;;;5015034;28;19944;-67
2021/11/20 09:07:47;;;;;;;;;;;11.90;99.90;;;;;;5015644;28;20322;-68
2021/11/20 09:10:19;;;;;;;;;;;12.10;99.90;;;;;;5013588;28;19914;-67
2021/11/20 09:12:51;;;;;;;;;;;12.20;99.90;;;;;;5010559;28;20355;-67
2021/11/20 09:15:20;;;;;;;;;;;12.20;99.90;;;;;;5011091;28;19918;-67
2021/11/20 09:17:47;;;;;;;;;;;12.20;99.90;;;;;;5011770;28;19922;-66
2021/11/20 09:20:13;;;;;;;;;;;12.40;99.90;;;;;;5006516;28;19917;-68
2021/11/20 09:22:39;;;;;;;;;;;12.60;99.90;;;;;;5013186;28;19918;-67
2021/11/20 09:25:06;;;;;;;;;;;12.70;99.90;;;;;;5013393;28;20140;-67
2021/11/20 09:27:32;;;;;;;;;;;12.60;99.90;;;;;;5014659;28;19909;-67
2021/11/20 09:29:58;;;;;;;;;;;12.60;99.90;;;;;;5013861;28;19910;-68
2021/11/20 09:32:23;;;;;;;;;;;12.40;99.90;;;;;;5012951;28;19925;-67
2021/11/20 09:34:49;;;;;;;;;;;12.20;99.90;;;;;;5012527;28;19921;-69
2021/11/20 09:37:15;;;;;;;;;;;12.20;99.90;;;;;;5012867;28;20391;-68
2021/11/20 09:39:42;;;;;;;;;;;12.20;99.90;;;;;;5010895;28;20375;-68
2021/11/20 09:42:19;;;;;;;;;;;12.20;99.90;;;;;;5010069;28;19924;-67
2021/11/20 09:44:48;;;;;;;;;;;12.10;99.90;;;;;;5025691;28;20008;-67
2021/11/20 09:47:23;;;;;;;;;;;12.00;99.90;;;;;;5011234;28;19914;-68
2021/11/20 09:49:50;;;;;;;;;;;12.00;99.90;;;;;;5012508;28;19917;-67
2021/11/20 09:52:16;;;;;;;;;;;12.00;99.90;;;;;;5008691;28;19913;-67
2021/11/20 09:54:43;;;;;;;;;;;11.90;99.90;;;;;;5012281;28;19920;-67
2021/11/20 09:57:13;;;;;;;;;;;11.90;99.90;;;;;;5012945;28;19953;-68
2021/11/20 09:59:38;;;;;;;;;;;12.00;99.90;;;;;;5014021;28;19909;-66
2021/11/20 10:02:22;;;;;;;;;;;11.90;99.90;;;;;;5006412;28;19918;-68
2021/11/20 10:04:54;;;;;;;;;;;11.80;99.90;;;;;;5011863;28;19914;-67
2021/11/20 10:07:22;;;;;;;;;;;11.80;99.90;;;;;;5013581;28;19948;-70
2021/11/20 10:09:49;;;;;;;;;;;11.90;99.90;;;;;;5011048;28;19932;-67
2021/11/20 10:12:18;;;;;;;;;;;11.90;99.90;;;;;;5012308;28;20008;-68
2021/11/20 10:14:46;;;;;;;;;;;11.80;99.90;;;;;;5007150;28;19914;-67
2021/11/20 10:17:17;;;;;;;;;;;11.70;99.90;;;;;;5014453;28;20272;-67
2021/11/20 10:19:45;;;;;;;;;;;11.80;99.90;;;;;;5014758;28;19948;-66
2021/11/20 10:22:15;;;;;;;;;;;11.80;99.90;;;;;;5014436;28;20436;-66
2021/11/20 10:24:47;;;;;;;;;;;11.80;99.90;;;;;;5012201;28;19914;-66
2021/11/20 10:27:24;;;;;;;;;;;11.70;99.90;;;;;;5001867;28;20334;-66
2021/11/20 10:29:53;;;;;;;;;;;11.80;99.90;;;;;;5012626;28;19914;-66
2021/11/20 10:32:21;;;;;;;;;;;11.80;99.90;;;;;;5012757;28;19917;-66
2021/11/20 10:34:50;;;;;;;;;;;11.70;99.90;;;;;;5010916;28;19924;-66
2021/11/20 10:37:33;;;;;;;;;;;11.70;99.90;;;;;;5011413;28;19917;-66
2021/11/20 10:40:02;;;;;;;;;;;11.60;99.90;;;;;;5011963;28;19910;-67
2021/11/20 10:42:31;;;;;;;;;;;11.70;99.90;;;;;;5012306;28;19913;-66
2021/11/20 10:45:09;;;;;;;;;;;11.60;99.90;;;;;;5012710;28;20031;-66
2021/11/20 10:47:40;;;;;;;;;;;11.70;99.90;;;;;;4991570;28;20531;-67
2021/11/20 10:50:24;;;;;;;;;;;11.70;99.90;;;;;;5008531;28;19945;-66
2021/11/20 10:52:50;;;;;;;;;;;11.70;99.90;;;;;;5012713;28;19917;-66
2021/11/20 10:55:27;;;;;;;;;;;11.70;99.90;;;;;;5013516;28;20279;-65
2021/11/20 10:58:01;;;;;;;;;;;11.80;99.90;;;;;;5011811;28;19948;-66
2021/11/20 11:00:46;;;;;;;;;;;11.80;99.90;;;;;;5010497;28;19933;-67
2021/11/20 11:03:26;;;;;;;;;;;11.80;99.90;;;;;;5015419;28;19921;-66
2021/11/20 11:06:15;;;;;;;;;;;11.80;99.90;;;;;;5012873;28;20020;-66
2021/11/20 11:08:49;;;;;;;;;;;11.80;99.90;;;;;;5012845;28;19922;-69
2021/11/20 11:11:24;;;;;;;;;;;11.80;99.90;;;;;;5015646;28;19913;-65
2021/11/20 11:14:02;;;;;;;;;;;11.80;99.90;;;;;;5015769;28;19916;-67
2021/11/20 11:16:30;;;;;;;;;;;11.90;99.90;;;;;;5015312;28;19980;-68
2021/11/20 11:19:00;;;;;;;;;;;11.90;99.90;;;;;;5013685;28;20342;-67
2021/11/20 11:21:35;;;;;;;;;;;12.00;99.90;;;;;;5015153;28;19913;-67
2021/11/20 11:24:09;;;;;;;;;;;12.00;99.90;;;;;;5013834;28;20422;-68
2021/11/20 11:26:37;;;;;;;;;;;12.00;99.90;;;;;;5014439;28;19949;-67
2021/11/20 11:29:14;;;;;;;;;;;11.90;99.90;;;;;;5015348;28;19913;-69
2021/11/20 11:31:42;;;;;;;;;;;11.90;99.90;;;;;;5015895;28;19976;-67
2021/11/20 11:34:15;;;;;;;;;;;11.80;99.90;;;;;;5012127;28;19968;-66
2021/11/20 11:36:48;;;;;;;;;;;11.90;99.90;;;;;;5015995;28;19917;-68
2021/11/20 11:39:19;;;;;;;;;;;11.90;99.90;;;;;;5009115;28;19917;-67
2021/11/20 11:42:03;;;;;;;;;;;11.90;99.90;;;;;;5016414;28;19959;-67
2021/11/20 11:44:31;;;;;;;;;;;11.90;99.90;;;;;;5016092;28;19913;-67
2021/11/20 11:47:03;;;;;;;;;;;11.80;99.90;;;;;;5014341;28;20434;-66
2021/11/20 11:49:28;;;;;;;;;;;11.60;99.90;;;;;;5010928;28;19925;-70
2021/11/20 11:51:56;;;;;;;;;;;11.70;99.90;;;;;;5014420;28;19913;-68
2021/11/20 11:54:30;;;;;;;;;;;11.70;99.90;;;;;;5013776;28;20379;-67
2021/11/20 11:57:11;;;;;;;;;;;11.70;99.90;;;;;;5014699;28;19910;-67
2021/11/20 11:59:56;;;;;;;;;;;11.70;99.90;;;;;;5013915;28;19909;-68
2021/11/20 12:02:31;;;;;;;;;;;11.80;99.90;;;;;;5009560;28;20007;-66
2021/11/20 12:05:00;;;;;;;;;;;11.80;99.90;;;;;;5013284;28;20328;-69
2021/11/20 12:07:48;;;;;;;;;;;11.80;99.90;;;;;;5014131;28;19924;-70
2021/11/20 12:10:20;;;;;;;;;;;11.70;99.90;;;;;;5013995;28;19910;-69
2021/11/20 12:12:52;;;;;;;;;;;11.70;99.90;;;;;;5013508;28;19963;-69
2021/11/20 12:15:18;;;;;;;;;;;11.60;99.90;;;;;;5010468;28;19943;-67
2021/11/20 12:17:53;;;;;;;;;;;11.60;99.90;;;;;;5014583;28;19916;-68
2021/11/20 12:20:28;;;;;;;;;;;11.60;99.90;;;;;;5014837;28;19910;-67
2021/11/20 12:23:01;;;;;;;;;;;11.70;99.90;;;;;;5014020;28;19932;-67
2021/11/20 12:25:29;;;;;;;;;;;11.60;99.90;;;;;;5014397;28;20000;-67
2021/11/20 12:28:02;;;;;;;;;;;11.70;99.90;;;;;;5011446;28;19922;-65
2021/11/20 12:30:28;;;;;;;;;;;11.80;99.90;;;;;;5014824;28;20272;-66
2021/11/20 12:33:12;;;;;;;;;;;11.80;99.90;;;;;;5014526;28;19920;-67
2021/11/20 12:35:50;;;;;;;;;;;11.70;99.90;;;;;;5014209;28;20225;-64
2021/11/20 12:38:32;;;;;;;;;;;11.70;99.90;;;;;;5013496;28;19953;-66
2021/11/20 12:41:16;;;;;;;;;;;11.60;99.90;;;;;;5007831;28;19917;-67
2021/11/20 12:43:49;;;;;;;;;;;11.70;99.90;;;;;;5013874;28;19914;-66
2021/11/20 12:46:14;;;;;;;;;;;11.60;99.90;;;;;;5004137;28;19920;-66
2021/11/20 12:49:04;;;;;;;;;;;11.60;99.90;;;;;;5012661;28;19922;-65
2021/11/20 12:51:29;;;;;;;;;;;11.60;99.90;;;;;;5012253;28;19949;-66
2021/11/20 12:54:01;;;;;;;;;;;11.60;99.90;;;;;;5012890;28;19961;-65
2021/11/20 12:56:29;;;;;;;;;;;11.70;99.90;;;;;;5013289;28;19926;-67
2021/11/20 12:59:18;;;;;;;;;;;11.60;99.90;;;;;;5012221;28;19964;-65
2021/11/20 13:02:08;;;;;;;;;;;11.50;99.90;;;;;;5007096;28;20004;-67
2021/11/20 13:04:44;;;;;;;;;;;11.60;99.90;;;;;;5006974;28;20401;-66
2021/11/20 13:07:15;;;;;;;;;;;11.60;99.90;;;;;;5013047;28;20286;-66
2021/11/20 13:10:13;;;;;;;;;;;11.70;99.90;;;;;;5010574;28;19909;-66
2021/11/20 13:12:46;;;;;;;;;;;11.80;99.90;;;;;;4989525;28;20005;-65
2021/11/20 13:15:16;;;;;;;;;;;11.80;99.90;;;;;;4992778;28;20149;-67
2021/11/20 13:17:46;;;;;;;;;;;11.70;99.90;;;;;;5010355;28;19918;-67
2021/11/20 13:20:16;;;;;;;;;;;11.70;99.90;;;;;;5011990;28;19910;-65
2021/11/20 13:22:43;;;;;;;;;;;11.80;99.90;;;;;;5012171;28;19957;-66
2021/11/20 13:25:11;;;;;;;;;;;11.80;99.90;;;;;;5012281;28;19917;-66
2021/11/20 13:27:41;;;;;;;;;;;11.80;99.90;;;;;;5012309;28;19909;-65
2021/11/20 13:30:08;;;;;;;;;;;11.80;99.90;;;;;;5011567;28;19986;-67
2021/11/20 13:32:33;;;;;;;;;;;11.80;99.90;;;;;;5011942;28;19909;-66
2021/11/20 13:34:59;;;;;;;;;;;11.70;99.90;;;;;;5010555;28;20017;-65
2021/11/20 13:37:25;;;;;;;;;;;11.70;99.90;;;;;;5012333;28;19910;-65
2021/11/20 13:39:51;;;;;;;;;;;11.60;99.90;;;;;;5011796;28;19909;-66
2021/11/20 13:42:17;;;;;;;;;;;11.60;99.90;;;;;;5011993;28;19921;-65
2021/11/20 13:44:43;;;;;;;;;;;11.70;99.90;;;;;;5012223;28;19913;-64
2021/11/20 13:47:09;;;;;;;;;;;11.70;99.90;;;;;;5010028;28;19922;-65
2021/11/20 13:49:35;;;;;;;;;;;11.60;99.90;;;;;;5011835;28;20299;-65
2021/11/20 13:52:07;;;;;;;;;;;11.40;99.90;;;;;;5011581;28;19910;-64
2021/11/20 13:54:33;;;;;;;;;;;11.30;99.90;;;;;;5010719;28;19920;-69
2021/11/20 13:56:59;;;;;;;;;;;11.20;99.90;;;;;;5000044;28;19909;-67
2021/11/20 13:59:25;;;;;;;;;;;11.20;99.90;;;;;;5011516;28;19932;-67
2021/11/20 14:01:52;;;;;;;;;;;11.20;99.90;;;;;;5010147;28;20263;-68
2021/11/20 14:04:22;;;;;;;;;;;11.30;99.90;;;;;;5011251;28;21637;-68
2021/11/20 14:06:58;;;;;;;;;;;11.20;99.90;;;;;;5011860;28;20422;-67
2021/11/20 14:09:23;;;;;;;;;;;11.20;99.90;;;;;;5010087;28;19928;-66
2021/11/20 14:12:10;;;;;;;;;;;11.20;99.90;;;;;;5009686;28;19918;-67
2021/11/20 14:14:36;;;;;;;;;;;11.20;99.90;;;;;;5009783;28;19944;-68
2021/11/20 14:17:07;;;;;;;;;;;11.30;99.90;;;;;;5011162;28;19909;-68
2021/11/20 14:19:33;;;;;;;;;;;11.30;99.90;;;;;;5005791;28;19980;-67
2021/11/20 14:22:01;;;;;;;;;;;11.30;99.90;;;;;;5010968;28;20431;-66
2021/11/20 14:24:31;;;;;;;;;;;11.30;99.90;;;;;;5010312;28;19909;-67
2021/11/20 14:26:58;;;;;;;;;;;11.30;99.90;;;;;;5009326;28;20369;-66
2021/11/20 14:29:28;;;;;;;;;;;11.20;99.90;;;;;;5006761;28;19910;-67
2021/11/20 14:31:54;;;;;;;;;;;11.10;99.90;;;;;;5010736;28;19967;-65